Time;durP1;ratioP1;P1;durP2;ratioP2;P2;SDS_P1;SDS_P2;PMS_P1;PMS_P2;Temp;Humidity;BMP_temperature;BMP_pressure;BME280_temperature;BME280_humidity;BME280_pressure;Samples;Min_cycle;Max_cycle;Signal;HPM_P1;HPM_P2
2022/04/16 00:01:05;;;;;;;23.65;12.40;;;10.00;99.90;;;;;;5074882;28;20598;-62
2022/04/16 00:03:33;;;;;;;24.90;13.20;;;10.00;99.90;;;;;;5061248;28;20124;-61
2022/04/16 00:06:02;;;;;;;17.35;11.40;;;9.90;99.90;;;;;;5056050;28;20047;-63
2022/04/16 00:08:30;;;;;;;22.17;12.32;;;9.90;99.90;;;;;;5060737;28;20523;-64
2022/04/16 00:10:58;;;;;;;22.05;12.52;;;9.90;99.90;;;;;;5074246;28;20399;-61
2022/04/16 00:13:26;;;;;;;24.90;13.60;;;9.90;99.90;;;;;;5075572;28;20051;-61
2022/04/16 00:15:53;;;;;;;23.00;13.15;;;9.90;99.90;;;;;;5076186;28;20088;-63
2022/04/16 00:18:22;;;;;;;22.45;12.52;;;9.80;99.90;;;;;;5069622;28;20045;-61
2022/04/16 00:20:49;;;;;;;24.88;13.40;;;9.90;99.90;;;;;;5076014;28;20484;-61
2022/04/16 00:23:21;;;;;;;24.60;13.20;;;9.80;99.90;;;;;;5075618;28;20063;-61
2022/04/16 00:25:49;;;;;;;21.70;11.93;;;9.80;99.90;;;;;;5054681;28;20060;-61
2022/04/16 00:28:17;;;;;;;20.17;12.27;;;9.70;99.90;;;;;;5060512;28;20186;-61
2022/04/16 00:30:45;;;;;;;19.83;12.20;;;9.70;99.90;;;;;;5072981;28;20583;-61
2022/04/16 00:33:13;;;;;;;24.05;12.75;;;9.70;99.90;;;;;;5058831;28;20041;-61
2022/04/16 00:35:44;;;;;;;24.33;12.63;;;9.60;99.90;;;;;;5055990;28;20480;-67
2022/04/16 00:38:12;;;;;;;21.30;11.60;;;9.60;99.90;;;;;;5060071;28;20069;-65
2022/04/16 00:40:40;;;;;;;22.73;12.95;;;9.60;99.90;;;;;;5072637;28;20045;-63
2022/04/16 00:43:08;;;;;;;20.73;12.43;;;9.50;99.90;;;;;;5071036;28;20059;-62
2022/04/16 00:45:37;;;;;;;26.02;13.57;;;9.50;99.90;;;;;;5075946;28;20041;-65
2022/04/16 00:48:07;;;;;;;22.25;12.48;;;9.40;99.90;;;;;;5072631;28;20052;-67
2022/04/16 00:50:35;;;;;;;27.30;13.35;;;9.40;99.90;;;;;;5075813;28;20401;-67
2022/04/16 00:53:02;;;;;;;26.80;12.70;;;9.30;99.90;;;;;;5074792;28;20051;-65
2022/04/16 00:55:31;;;;;;;21.67;13.27;;;9.30;99.90;;;;;;5075391;28;20059;-64
2022/04/16 00:57:59;;;;;;;19.75;11.70;;;9.20;99.90;;;;;;5060849;28;20069;-65
2022/04/16 01:00:27;;;;;;;26.27;13.90;;;9.20;99.90;;;;;;5072467;28;20047;-62
2022/04/16 01:02:58;;;;;;;26.80;15.30;;;9.10;99.90;;;;;;5069786;28;20053;-61
2022/04/16 01:05:26;;;;;;;25.08;14.75;;;9.10;99.90;;;;;;5056761;28;20043;-63
2022/04/16 01:07:58;;;;;;;28.90;14.45;;;9.00;99.90;;;;;;5064789;28;20044;-66
2022/04/16 01:10:31;;;;;;;27.25;15.55;;;9.00;99.90;;;;;;5072179;28;20041;-65
2022/04/16 01:13:04;;;;;;;25.15;14.07;;;8.90;99.90;;;;;;5051922;28;20072;-65
2022/04/16 01:15:32;;;;;;;25.40;15.05;;;8.90;99.90;;;;;;5052881;28;20052;-67
2022/04/16 01:18:03;;;;;;;27.27;15.20;;;8.90;99.90;;;;;;5054687;28;20580;-67
2022/04/16 01:20:36;;;;;;;25.30;15.27;;;8.80;99.90;;;;;;5071565;28;20373;-62
2022/04/16 01:23:06;;;;;;;26.83;14.70;;;8.80;99.90;;;;;;5052057;28;20503;-62
2022/04/16 01:25:35;;;;;;;27.50;16.27;;;8.80;99.90;;;;;;5051888;28;20495;-61
2022/04/16 01:28:05;;;;;;;25.90;14.20;;;8.80;99.90;;;;;;5054540;28;20048;-61
2022/04/16 01:30:33;;;;;;;27.90;14.40;;;8.80;99.90;;;;;;5066777;28;20641;-61
2022/04/16 01:33:03;;;;;;;25.30;14.60;;;8.80;99.90;;;;;;5066100;28;20037;-61
2022/04/16 01:35:32;;;;;;;25.15;13.40;;;8.80;99.90;;;;;;5066609;28;20040;-61
2022/04/16 01:38:03;;;;;;;23.83;13.13;;;8.70;99.90;;;;;;5056890;28;20052;-61
2022/04/16 01:40:31;;;;;;;22.52;12.95;;;8.70;99.90;;;;;;5062269;28;20056;-61
2022/04/16 01:43:00;;;;;;;24.02;14.40;;;8.60;99.90;;;;;;5067457;28;20041;-63
2022/04/16 01:45:28;;;;;;;26.17;15.45;;;8.60;99.90;;;;;;5051112;28;20048;-62
2022/04/16 01:47:58;;;;;;;26.88;14.70;;;8.60;99.90;;;;;;5059196;28;20053;-61
2022/04/16 01:50:26;;;;;;;24.25;13.02;;;8.60;99.90;;;;;;5055019;28;20052;-60
2022/04/16 01:52:54;;;;;;;25.98;13.23;;;8.50;99.90;;;;;;5063416;28;20476;-61
2022/04/16 01:55:22;;;;;;;25.58;13.73;;;8.50;99.90;;;;;;5073091;28;20071;-61
2022/04/16 01:57:50;;;;;;;25.35;13.07;;;8.40;99.90;;;;;;5072568;28;20053;-61
2022/04/16 02:00:19;;;;;;;25.17;12.85;;;8.40;99.90;;;;;;5071660;28;20049;-60
2022/04/16 02:02:47;;;;;;;23.50;13.63;;;8.30;99.90;;;;;;5072939;28;20056;-64
2022/04/16 02:05:15;;;;;;;29.27;15.80;;;8.30;99.90;;;;;;5060871;28;20511;-61
2022/04/16 02:07:42;;;;;;;23.90;14.38;;;8.20;99.90;;;;;;5071083;28;20044;-61
2022/04/16 02:10:16;;;;;;;25.75;14.13;;;8.20;99.90;;;;;;5072716;28;20637;-61
2022/04/16 02:12:44;;;;;;;26.05;13.70;;;8.20;99.90;;;;;;5072499;28;20055;-63
2022/04/16 02:15:12;;;;;;;27.25;12.77;;;8.10;99.90;;;;;;5070264;28;20051;-61
2022/04/16 02:17:40;;;;;;;24.25;12.88;;;8.10;99.90;;;;;;5070664;28;20049;-61
2022/04/16 02:20:09;;;;;;;25.42;13.63;;;8.10;99.90;;;;;;5059218;28;20048;-61
2022/04/16 02:22:47;;;;;;;27.83;13.55;;;8.00;99.90;;;;;;5069782;28;20049;-61
2022/04/16 02:25:17;;;;;;;23.63;13.48;;;8.00;99.90;;;;;;5062860;28;20052;-61
2022/04/16 02:27:44;;;;;;;26.90;14.18;;;8.00;99.90;;;;;;5072655;28;20476;-61
2022/04/16 02:30:15;;;;;;;25.58;13.57;;;7.90;99.90;;;;;;5072267;28;20372;-62
2022/04/16 02:32:48;;;;;;;21.83;12.73;;;7.90;99.90;;;;;;5072417;28;20040;-62
2022/04/16 02:35:17;;;;;;;32.83;15.88;;;7.90;99.90;;;;;;5072300;28;20412;-63
2022/04/16 02:37:46;;;;;;;27.80;13.73;;;7.90;99.90;;;;;;5059490;28;20045;-61
2022/04/16 02:40:15;;;;;;;24.73;13.37;;;7.80;99.90;;;;;;5059702;28;20041;-61
2022/04/16 02:42:44;;;;;;;29.35;14.68;;;7.70;99.90;;;;;;5071879;28;20324;-61
2022/04/16 02:48:02;;;;;;;28.45;14.85;;;7.70;99.90;;;;;;5070975;28;20400;-62
2022/04/16 02:50:31;;;;;;;30.67;15.88;;;7.70;99.90;;;;;;5072072;28;20530;-63
2022/04/16 02:53:00;;;;;;;30.73;16.88;;;7.60;99.90;;;;;;5070791;28;20048;-61
2022/04/16 02:55:28;;;;;;;29.50;16.23;;;7.60;99.90;;;;;;5071987;28;20044;-62
2022/04/16 02:57:56;;;;;;;29.60;15.95;;;7.60;99.90;;;;;;5072025;28;20056;-67
2022/04/16 03:00:24;;;;;;;30.70;17.23;;;7.60;99.90;;;;;;5070776;28;20049;-66
2022/04/16 03:02:53;;;;;;;28.83;17.10;;;7.60;99.90;;;;;;5071754;28;20048;-65
2022/04/16 03:05:22;;;;;;;55.63;20.90;;;7.60;99.90;;;;;;5071750;28;20048;-62
2022/04/16 03:07:50;;;;;;;34.00;19.05;;;7.60;99.90;;;;;;5071789;28;20048;-66
2022/04/16 03:10:17;;;;;;;35.42;19.65;;;7.60;99.90;;;;;;5071846;28;20044;-64
2022/04/16 03:12:49;;;;;;;29.30;16.58;;;7.60;99.90;;;;;;5071780;28;20392;-65
2022/04/16 03:18:05;;;;;;;29.00;17.40;;;7.60;99.90;;;;;;5071604;28;20052;-68
2022/04/16 03:20:33;;;;;;;28.83;16.83;;;7.60;99.90;;;;;;5071207;28;20045;-63
2022/04/16 03:23:02;;;;;;;29.35;16.58;;;7.60;99.90;;;;;;5071578;28;20060;-63
2022/04/16 03:25:30;;;;;;;29.00;16.92;;;7.70;99.90;;;;;;5070447;28;20531;-63
2022/04/16 03:27:58;;;;;;;28.98;17.08;;;7.70;99.90;;;;;;5071423;28;20408;-63
2022/04/16 03:30:26;;;;;;;33.60;17.70;;;7.80;99.90;;;;;;5071337;28;20049;-61
2022/04/16 03:32:56;;;;;;;31.42;18.05;;;7.90;99.90;;;;;;5071678;28;20053;-64
2022/04/16 03:35:24;;;;;;;30.67;17.67;;;8.00;99.90;;;;;;5069977;28;20059;-64
2022/04/16 03:37:52;;;;;;;28.80;16.73;;;8.10;99.90;;;;;;5071581;28;20059;-66
2022/04/16 03:40:20;;;;;;;27.05;15.10;;;8.10;99.90;;;;;;5071546;28;20442;-63
2022/04/16 03:42:50;;;;;;;35.03;17.85;;;8.20;99.90;;;;;;5071230;28;20048;-61
2022/04/16 03:45:29;;;;;;;31.13;16.27;;;8.20;99.90;;;;;;5071409;28;20045;-62
2022/04/16 03:47:59;;;;;;;27.75;14.85;;;8.30;99.90;;;;;;5071527;28;20048;-62
2022/04/16 03:50:29;;;;;;;25.58;14.93;;;8.30;99.90;;;;;;5071306;28;20045;-63
2022/04/16 03:52:56;;;;;;;30.35;15.63;;;8.40;99.90;;;;;;5070849;28;20057;-61
2022/04/16 04:01:01;;;;;;;29.08;15.40;;;8.40;99.90;;;;;;5070005;28;20044;-62
2022/04/16 04:03:30;;;;;;;30.58;16.00;;;8.40;99.90;;;;;;5071201;28;20494;-61
2022/04/16 04:06:01;;;;;;;30.92;16.60;;;8.30;99.90;;;;;;5069908;28;20068;-63
2022/04/16 04:08:29;;;;;;;30.08;16.30;;;8.20;99.90;;;;;;5071196;28;20048;-61
2022/04/16 04:10:57;;;;;;;28.92;16.10;;;8.20;99.90;;;;;;5071059;28;20052;-63
2022/04/16 04:13:26;;;;;;;28.05;15.80;;;8.10;99.90;;;;;;5071007;28;20045;-61
2022/04/16 04:15:54;;;;;;;35.42;17.35;;;8.00;99.90;;;;;;5069887;28;20399;-61
2022/04/16 04:18:24;;;;;;;36.00;17.48;;;7.90;99.90;;;;;;5071177;28;20044;-61
2022/04/16 04:20:53;;;;;;;34.42;18.00;;;7.80;99.90;;;;;;5070832;28;20683;-60
2022/04/16 04:23:21;;;;;;;39.67;19.45;;;7.80;99.90;;;;;;5071124;28;20071;-61
2022/04/16 04:25:49;;;;;;;32.38;17.10;;;7.70;99.90;;;;;;5070988;28;20045;-62
2022/04/16 04:28:17;;;;;;;33.42;17.98;;;7.70;99.90;;;;;;5053189;28;20052;-61
2022/04/16 04:30:45;;;;;;;31.40;16.77;;;7.70;99.90;;;;;;5070907;28;20049;-61
2022/04/16 04:33:13;;;;;;;36.28;17.73;;;7.60;99.90;;;;;;5071481;28;20075;-61
2022/04/16 04:35:40;;;;;;;30.63;17.83;;;7.60;99.90;;;;;;5074602;28;20048;-62
2022/04/16 04:38:08;;;;;;;34.83;17.77;;;7.60;99.90;;;;;;5074822;28;20640;-62
2022/04/16 04:40:35;;;;;;;35.17;18.70;;;7.50;99.90;;;;;;5074745;28;20074;-61
2022/04/16 04:43:03;;;;;;;32.17;17.98;;;7.50;99.90;;;;;;5074399;28;20480;-61
2022/04/16 04:45:31;;;;;;;33.45;17.83;;;7.50;99.90;;;;;;5074509;28;20051;-61
2022/04/16 04:47:58;;;;;;;33.38;18.63;;;7.50;99.90;;;;;;5066904;28;20056;-61
2022/04/16 04:50:26;;;;;;;38.78;19.38;;;7.40;99.90;;;;;;5070088;28;20044;-61
2022/04/16 04:52:54;;;;;;;32.97;18.10;;;7.40;99.90;;;;;;5070795;28;20484;-63
2022/04/16 04:55:21;;;;;;;34.63;19.02;;;7.50;99.90;;;;;;5069984;28;20052;-62
2022/04/16 04:57:54;;;;;;;35.17;18.67;;;7.50;99.90;;;;;;5072832;28;20049;-62
2022/04/16 05:00:22;;;;;;;34.53;19.13;;;7.50;99.90;;;;;;5071024;28;20049;-61
2022/04/16 05:02:49;;;;;;;36.72;17.27;;;7.60;99.90;;;;;;5055731;28;20041;-64
2022/04/16 05:05:17;;;;;;;30.23;17.77;;;7.60;99.90;;;;;;5048797;28;20056;-61
2022/04/16 05:07:45;;;;;;;35.33;17.95;;;7.70;99.90;;;;;;5056769;28;20044;-62
2022/04/16 05:10:13;;;;;;;31.63;16.92;;;7.70;99.90;;;;;;5072406;28;20056;-61
2022/04/16 05:12:41;;;;;;;35.30;18.60;;;7.80;99.90;;;;;;5071096;28;20048;-61
2022/04/16 05:15:09;;;;;;;29.73;17.80;;;7.80;99.90;;;;;;5072448;28;20045;-61
2022/04/16 05:17:37;;;;;;;35.20;19.13;;;7.90;99.90;;;;;;5070865;28;20059;-61
2022/04/16 05:20:09;;;;;;;34.25;19.13;;;7.90;99.90;;;;;;5071138;28;20488;-61
2022/04/16 05:22:39;;;;;;;35.00;19.02;;;8.00;99.90;;;;;;5067880;28;20060;-61
2022/04/16 05:25:10;;;;;;;35.50;18.95;;;8.10;99.90;;;;;;5068781;28;20052;-61
2022/04/16 05:27:38;;;;;;;33.08;18.33;;;8.20;99.90;;;;;;5068924;28;20040;-62
2022/04/16 05:32:35;;;;;;;39.20;17.98;;;8.30;99.90;;;;;;5066758;28;20064;-66
2022/04/16 05:35:06;;;;;;;33.88;17.80;;;8.40;99.90;;;;;;5047424;28;20045;-65
2022/04/16 05:37:35;;;;;;;31.42;19.30;;;8.40;99.90;;;;;;5052328;28;20041;-63
2022/04/16 05:40:04;;;;;;;32.40;17.33;;;8.50;99.90;;;;;;5047192;28;20064;-62
2022/04/16 05:42:31;;;;;;;32.38;18.23;;;8.60;99.90;;;;;;5048461;28;20076;-65
2022/04/16 05:45:01;;;;;;;33.13;17.70;;;8.60;99.90;;;;;;5047878;28;20045;-65
2022/04/16 05:47:29;;;;;;;;;;;8.70;99.90;;;;;;5056055;28;20526;-62
2022/04/16 05:49:56;;;;;;;31.08;17.45;;;8.80;99.90;;;;;;5050521;28;19920;-61
2022/04/16 05:52:24;;;;;;;31.27;17.00;;;8.80;99.90;;;;;;5051678;28;20056;-63
2022/04/16 05:54:52;;;;;;;32.42;16.92;;;8.90;99.90;;;;;;5051598;28;20053;-62
2022/04/16 05:57:22;;;;;;;32.17;17.50;;;8.90;99.90;;;;;;5053456;28;20055;-63
2022/04/16 05:59:50;;;;;;;31.55;17.05;;;8.90;99.90;;;;;;5071517;28;20045;-62
2022/04/16 06:02:18;;;;;;;30.52;17.33;;;9.00;99.90;;;;;;5068439;28;20053;-62
2022/04/16 06:04:46;;;;;;;29.77;16.83;;;9.00;99.90;;;;;;5050214;28;20041;-61
2022/04/16 06:07:15;;;;;;;29.98;17.05;;;9.10;99.90;;;;;;5052639;28;20060;-63
2022/04/16 06:09:43;;;;;;;30.45;16.27;;;9.10;99.90;;;;;;5071281;28;20060;-61
2022/04/16 06:12:10;;;;;;;31.88;17.15;;;9.10;99.90;;;;;;5071068;28;20476;-62
2022/04/16 06:14:38;;;;;;;30.15;16.58;;;9.10;99.90;;;;;;5071190;28;20033;-61
2022/04/16 06:17:06;;;;;;;31.77;17.77;;;9.10;99.90;;;;;;5070954;28;20045;-61
2022/04/16 06:19:33;;;;;;;35.90;18.23;;;9.10;99.90;;;;;;5055492;28;20045;-60
2022/04/16 06:22:01;;;;;;;31.95;18.30;;;9.10;99.90;;;;;;5066416;28;20045;-61
2022/04/16 06:24:29;;;;;;;33.70;18.42;;;9.10;99.90;;;;;;5051035;28;20480;-61
2022/04/16 06:26:56;;;;;;;36.72;20.30;;;9.10;99.90;;;;;;5050938;28;20036;-62
2022/04/16 06:29:24;;;;;;;36.92;19.92;;;9.10;99.90;;;;;;5049272;28;20539;-61
2022/04/16 06:31:52;;;;;;;39.47;21.10;;;9.10;99.90;;;;;;5047076;28;20048;-61
2022/04/16 06:34:20;;;;;;;48.40;24.70;;;9.20;99.90;;;;;;5047430;28;20377;-61
2022/04/16 06:36:48;;;;;;;54.63;28.27;;;9.20;99.90;;;;;;5064873;28;20068;-63
2022/04/16 06:39:16;;;;;;;51.45;27.05;;;9.30;99.90;;;;;;5070514;28;20059;-61
2022/04/16 06:41:43;;;;;;;56.88;29.33;;;9.30;99.90;;;;;;5070757;28;20049;-61
2022/04/16 06:44:12;;;;;;;52.83;28.98;;;9.30;99.90;;;;;;5068482;28;20059;-62
2022/04/16 06:46:46;;;;;;;59.03;29.67;;;9.40;99.90;;;;;;5067224;28;20045;-61
2022/04/16 06:49:14;;;;;;;58.00;30.27;;;9.50;99.90;;;;;;5055263;28;20396;-61
2022/04/16 06:51:42;;;;;;;55.38;30.55;;;9.50;99.90;;;;;;5046756;28;20052;-62
2022/04/16 06:54:10;;;;;;;55.55;31.63;;;9.60;99.90;;;;;;5048773;28;20508;-62
2022/04/16 06:56:37;;;;;;;53.53;31.85;;;9.60;99.90;;;;;;5049560;28;20507;-62
2022/04/16 06:59:08;;;;;;;55.33;32.15;;;9.70;99.90;;;;;;5067986;28;20056;-61
2022/04/16 07:01:35;;;;;;;61.33;32.47;;;9.80;99.90;;;;;;5067202;28;20040;-61
2022/04/16 07:04:04;;;;;;;58.33;32.55;;;9.90;99.90;;;;;;5065025;28;20051;-61
2022/04/16 07:06:31;;;;;;;64.93;32.15;;;9.90;99.90;;;;;;5067678;28;20045;-63
2022/04/16 07:08:59;;;;;;;57.80;31.58;;;10.00;99.90;;;;;;5066520;28;20373;-61
2022/04/16 07:11:27;;;;;;;58.83;30.85;;;10.10;99.90;;;;;;5050119;28;20056;-62
2022/04/16 07:13:55;;;;;;;56.08;31.27;;;10.10;99.90;;;;;;5049998;28;20515;-61
2022/04/16 07:16:22;;;;;;;51.72;29.15;;;10.20;99.90;;;;;;5050028;28;20041;-61
2022/04/16 07:18:50;;;;;;;53.50;28.17;;;10.30;99.90;;;;;;5063927;28;20037;-62
2022/04/16 07:21:18;;;;;;;55.83;29.75;;;10.40;99.90;;;;;;5060353;28;20041;-61
2022/04/16 07:23:45;;;;;;;52.22;28.63;;;10.50;99.90;;;;;;5048591;28;20041;-61
2022/04/16 07:26:13;;;;;;;45.00;27.08;;;10.50;99.90;;;;;;5050015;28;20049;-61
2022/04/16 07:28:41;;;;;;;48.47;26.45;;;10.60;99.90;;;;;;5063771;28;20045;-61
2022/04/16 07:31:09;;;;;;;44.95;26.60;;;10.60;99.90;;;;;;5069705;28;20052;-62
2022/04/16 07:33:37;;;;;;;48.55;26.02;;;10.70;99.90;;;;;;5067446;28;20059;-62
2022/04/16 07:36:05;;;;;;;47.92;25.50;;;10.70;99.90;;;;;;5056626;28;20056;-63
2022/04/16 07:38:32;;;;;;;45.92;26.65;;;10.80;99.90;;;;;;5069599;28;20614;-61
2022/04/16 07:41:02;;;;;;;43.10;25.80;;;10.80;99.90;;;;;;5069775;28;20044;-61
2022/04/16 07:43:30;;;;;;;42.97;26.23;;;10.90;99.90;;;;;;5068416;28;20052;-61
2022/04/16 07:45:58;;;;;;;45.50;25.83;;;11.00;99.90;;;;;;5069709;28;20063;-63
2022/04/16 07:48:25;;;;;;;42.65;24.48;;;11.00;99.90;;;;;;5069384;28;20412;-65
2022/04/16 07:50:53;;;;;;;43.28;24.52;;;11.00;99.90;;;;;;5066559;28;20044;-61
2022/04/16 07:53:22;;;;;;;43.50;24.15;;;11.10;99.90;;;;;;5069539;28;20052;-63
2022/04/16 07:55:49;;;;;;;41.75;23.55;;;11.20;99.90;;;;;;5069570;28;20051;-64
2022/04/16 07:58:17;;;;;;;40.03;23.95;;;11.20;99.90;;;;;;5053975;28;20244;-61
2022/04/16 08:00:44;;;;;;;45.45;24.08;;;11.30;99.90;;;;;;5055647;28;20053;-60
2022/04/16 08:03:12;;;;;;;42.35;23.50;;;11.30;99.90;;;;;;5069616;28;20450;-61
2022/04/16 08:05:40;;;;;;;39.38;23.23;;;11.40;99.90;;;;;;5065920;28;20052;-61
2022/04/16 08:08:10;;;;;;;37.88;22.38;;;11.40;99.90;;;;;;5071591;28;20044;-61
2022/04/16 08:10:37;;;;;;;42.55;23.27;;;11.50;99.90;;;;;;5052608;28;20045;-60
2022/04/16 08:13:07;;;;;;;39.97;22.02;;;11.60;99.90;;;;;;5052109;28;20056;-61
2022/04/16 08:15:35;;;;;;;37.58;21.65;;;11.60;99.90;;;;;;5053572;28;20488;-65
2022/04/16 08:18:03;;;;;;;37.55;22.33;;;11.70;99.90;;;;;;5060461;28;20052;-63
2022/04/16 08:20:31;;;;;;;34.47;20.33;;;11.80;99.90;;;;;;5051730;28;20053;-64
2022/04/16 08:23:05;;;;;;;36.72;18.95;;;11.90;99.90;;;;;;5053109;28;20052;-61
2022/04/16 08:28:05;;;;;;;36.58;20.45;;;12.00;99.90;;;;;;5065159;28;20040;-61
2022/04/16 08:30:33;;;;;;;34.65;20.30;;;12.10;99.90;;;;;;5068976;28;20058;-61
2022/04/16 08:33:01;;;;;;;32.50;20.15;;;12.20;99.90;;;;;;5052952;28;20048;-61
2022/04/16 08:35:29;;;;;;;35.10;20.60;;;12.30;99.90;;;;;;5051799;28;20052;-62
2022/04/16 08:37:57;;;;;;;33.47;19.98;;;12.40;99.90;;;;;;5067113;28;20044;-61
2022/04/16 08:40:24;;;;;;;39.08;20.55;;;12.40;99.90;;;;;;5051841;28;20064;-62
2022/04/16 08:42:53;;;;;;;31.73;18.83;;;12.50;99.90;;;;;;5051646;28;20052;-61
2022/04/16 08:45:23;;;;;;;34.00;20.08;;;12.60;99.90;;;;;;5051726;28;20684;-64
2022/04/16 08:47:52;;;;;;;31.45;19.58;;;12.70;99.90;;;;;;5059392;28;20045;-61
2022/04/16 08:50:20;;;;;;;30.13;18.30;;;12.80;99.90;;;;;;5060741;28;20049;-61
2022/04/16 08:52:49;;;;;;;30.02;19.10;;;12.90;99.90;;;;;;5052549;28;20052;-61
2022/04/16 08:55:16;;;;;;;30.88;17.98;;;13.00;99.90;;;;;;5050953;28;20056;-61
2022/04/16 08:57:44;;;;;;;30.35;18.20;;;13.10;99.90;;;;;;5070499;28;20063;-61
2022/04/16 09:00:13;;;;;;;29.45;17.73;;;13.20;99.90;;;;;;5071343;28;20396;-61
2022/04/16 09:02:56;;;;;;;29.15;16.20;;;13.30;99.90;;;;;;5071353;28;20059;-62
2022/04/16 09:05:26;;;;;;;25.17;15.48;;;13.40;99.90;;;;;;5062829;28;20036;-62
2022/04/16 09:07:56;;;;;;;29.55;16.15;;;13.50;99.90;;;;;;5069435;28;20051;-62
2022/04/16 09:10:28;;;;;;;24.80;14.43;;;13.50;99.90;;;;;;5050449;28;20049;-65
2022/04/16 09:12:58;;;;;;;20.33;11.52;;;13.70;99.90;;;;;;5052227;28;20481;-61
2022/04/16 09:15:27;;;;;;;23.52;12.70;;;13.80;99.90;;;;;;5063045;28;20049;-61
2022/04/16 09:18:06;;;;;;;22.95;13.13;;;13.90;99.90;;;;;;5071438;28;20429;-61
2022/04/16 09:20:40;;;;;;;18.35;11.63;;;14.00;99.90;;;;;;5060064;28;20049;-61
2022/04/16 09:23:21;;;;;;;16.77;11.45;;;14.10;99.90;;;;;;5051925;28;20505;-61
2022/04/16 09:25:50;;;;;;;18.98;10.80;;;14.20;99.90;;;;;;5050768;28;20053;-61
2022/04/16 09:28:19;;;;;;;15.50;9.75;;;14.30;99.90;;;;;;5060698;28;20045;-61
2022/04/16 09:30:56;;;;;;;18.85;10.43;;;14.30;99.90;;;;;;5053168;28;20140;-61
2022/04/16 09:33:24;;;;;;;17.40;11.35;;;14.40;99.90;;;;;;5052110;28;20041;-61
2022/04/16 09:35:58;;;;;;;17.27;12.15;;;14.50;99.90;;;;;;5050104;28;20052;-62
2022/04/16 09:38:33;;;;;;;16.70;11.20;;;14.50;99.90;;;;;;5061748;28;20055;-61
2022/04/16 09:41:06;;;;;;;16.77;10.57;;;14.70;99.90;;;;;;5070550;28;20048;-61
2022/04/16 09:43:38;;;;;;;22.48;11.60;;;14.80;99.90;;;;;;5051489;28;20041;-61
2022/04/16 09:46:13;;;;;;;17.55;10.32;;;14.80;99.90;;;;;;5050390;28;20427;-61
2022/04/16 09:48:42;;;;;;;16.48;9.80;;;14.90;99.90;;;;;;5064694;28;20051;-60
2022/04/16 09:51:10;;;;;;;14.27;9.85;;;15.00;99.90;;;;;;5057066;28;20053;-61
2022/04/16 09:53:38;;;;;;;15.85;9.77;;;15.10;99.90;;;;;;5050880;28;20060;-61
2022/04/16 09:56:11;;;;;;;16.67;10.20;;;15.20;99.90;;;;;;5051564;28;20403;-61
2022/04/16 09:58:43;;;;;;;13.23;8.23;;;15.30;99.90;;;;;;5062730;28;20048;-60
2022/04/16 10:01:11;;;;;;;12.88;8.23;;;15.40;99.90;;;;;;5069898;28;20046;-61
2022/04/16 10:03:40;;;;;;;15.88;9.32;;;15.50;99.90;;;;;;5050604;28;20048;-61
2022/04/16 10:06:09;;;;;;;16.45;9.90;;;15.60;99.90;;;;;;5048508;28;20048;-60
2022/04/16 10:08:37;;;;;;;15.02;10.35;;;15.70;99.90;;;;;;5063955;28;20036;-61
2022/04/16 10:11:05;;;;;;;17.83;10.55;;;15.70;99.90;;;;;;5071076;28;20071;-62
2022/04/16 10:13:48;;;;;;;15.95;10.23;;;15.80;99.90;;;;;;5071001;28;20041;-60
2022/04/16 10:16:32;;;;;;;14.88;9.55;;;15.90;99.90;;;;;;5052267;28;20036;-61
2022/04/16 10:18:59;;;;;;;14.23;10.65;;;16.10;99.90;;;;;;5061041;28;20495;-62
2022/04/16 10:21:33;;;;;;;18.00;10.50;;;16.20;99.90;;;;;;5069607;28;20060;-61
2022/04/16 10:24:01;;;;;;;13.88;9.02;;;16.30;99.90;;;;;;5070719;28;20391;-61
2022/04/16 10:26:42;;;;;;;12.02;8.57;;;16.40;99.90;;;;;;5070726;28;20044;-61
2022/04/16 10:29:19;;;;;;;14.35;9.52;;;16.50;99.90;;;;;;5065170;28;20395;-61
2022/04/16 10:31:50;;;;;;;12.35;8.50;;;16.70;99.90;;;;;;5070886;28;20154;-62
2022/04/16 10:34:29;;;;;;;13.00;8.70;;;16.80;99.90;;;;;;5070804;28;20041;-61
2022/04/16 10:36:57;;;;;;;16.75;8.70;;;17.00;99.90;;;;;;5052557;28;20048;-64
2022/04/16 10:39:31;;;;;;;12.85;8.32;;;17.10;99.90;;;;;;5069511;28;20067;-68
2022/04/16 10:42:01;;;;;;;11.68;7.28;;;17.30;99.90;;;;;;5064136;28;20032;-66
2022/04/16 10:44:42;;;;;;;8.35;5.40;;;17.40;99.90;;;;;;5053917;28;20048;-70
2022/04/16 10:47:16;;;;;;;11.05;6.25;;;17.40;99.90;;;;;;5050707;28;20049;-70
2022/04/16 10:49:45;;;;;;;11.15;6.50;;;17.50;99.90;;;;;;5070496;28;20052;-69
2022/04/16 10:52:20;;;;;;;9.77;6.85;;;17.50;99.90;;;;;;5051324;28;20419;-63
2022/04/16 10:54:48;;;;;;;13.70;6.68;;;17.60;99.90;;;;;;5049677;28;20044;-68
2022/04/16 10:57:22;;;;;;;10.25;6.25;;;17.80;99.90;;;;;;5048300;28;20942;-66
2022/04/16 10:59:50;;;;;;;11.13;6.22;;;18.00;99.90;;;;;;5060128;28;20048;-65
2022/04/16 11:02:28;;;;;;;11.90;6.80;;;18.10;99.90;;;;;;5050217;28;20041;-64
2022/04/16 11:05:03;;;;;;;8.80;5.13;;;18.20;99.90;;;;;;5052675;28;20036;-64
2022/04/16 11:07:35;;;;;;;8.60;5.50;;;18.30;99.90;;;;;;5053271;28;20044;-68
2022/04/16 11:10:08;;;;;;;8.73;4.63;;;18.50;99.90;;;;;;5068979;28;20543;-69
2022/04/16 11:12:40;;;;;;;5.38;3.30;;;18.70;99.90;;;;;;5048024;28;20389;-67
2022/04/16 11:15:13;;;;;;;9.05;3.45;;;19.00;99.90;;;;;;5049529;28;20060;-64
2022/04/16 11:17:41;;;;;;;8.75;2.55;;;19.20;99.90;;;;;;5053219;28;20041;-61
2022/04/16 11:20:09;;;;;;;7.85;2.05;;;19.30;99.90;;;;;;5068927;28;20041;-62
2022/04/16 11:22:38;;;;;;;3.70;1.90;;;19.50;99.90;;;;;;5058170;28;20053;-61
2022/04/16 11:25:07;;;;;;;5.70;1.92;;;19.70;99.90;;;;;;5049712;28;20060;-61
2022/04/16 11:36:01;;;;;;;4.18;2.55;;;20.50;99.90;;;;;;5050303;28;20049;-63
2022/04/16 11:38:31;;;;;;;3.85;2.30;;;20.60;99.90;;;;;;5059629;28;20048;-64
2022/04/16 11:41:00;;;;;;;6.40;2.60;;;20.60;99.30;;;;;;5069428;28;20385;-63
2022/04/16 11:43:28;;;;;;;5.32;2.83;;;20.60;99.80;;;;;;5069714;28;20040;-64
2022/04/16 11:46:01;;;;;;;6.68;2.38;;;20.70;99.90;;;;;;5069294;28;20060;-65
2022/04/16 11:48:33;;;;;;;6.13;2.55;;;20.90;99.20;;;;;;5065671;28;20506;-65
2022/04/16 11:51:01;;;;;;;6.45;2.75;;;21.10;98.60;;;;;;5069605;28;20040;-63
2022/04/16 11:53:29;;;;;;;5.63;2.17;;;21.30;97.60;;;;;;5052335;28;20056;-63
2022/04/16 11:56:01;;;;;;;5.88;2.70;;;21.40;96.90;;;;;;5049574;28;20044;-63
2022/04/16 11:58:29;;;;;;;5.60;3.10;;;21.50;96.50;;;;;;5060460;28;20487;-63
2022/04/16 12:00:57;;;;;;;6.60;3.70;;;21.70;96.50;;;;;;5069641;28;20049;-63
2022/04/16 12:03:39;;;;;;;5.68;2.60;;;21.80;95.20;;;;;;5060246;28;20041;-63
2022/04/16 12:06:09;;;;;;;8.75;3.80;;;22.00;94.20;;;;;;5049478;28;20060;-63
2022/04/16 12:08:37;;;;;;;8.00;3.20;;;22.00;94.50;;;;;;5061446;28;20051;-63
2022/04/16 12:11:05;;;;;;;7.47;3.47;;;22.10;95.30;;;;;;5069367;28;20048;-63
2022/04/16 12:13:40;;;;;;;5.55;2.92;;;22.20;93.90;;;;;;5069072;28;20044;-63
2022/04/16 12:16:12;;;;;;;9.15;3.33;;;22.30;93.20;;;;;;5069500;28;20049;-63
2022/04/16 12:18:42;;;;;;;8.93;3.60;;;22.30;93.10;;;;;;5056661;28;20049;-62
2022/04/16 12:21:15;;;;;;;4.67;3.10;;;22.40;92.30;;;;;;5049443;28;20049;-63
2022/04/16 12:23:44;;;;;;;4.13;2.95;;;22.40;92.00;;;;;;5063892;28;20289;-63
2022/04/16 12:26:16;;;;;;;6.95;3.22;;;22.50;91.70;;;;;;5069244;28;20052;-63
2022/04/16 12:28:51;;;;;;;7.88;3.55;;;22.60;91.50;;;;;;5068116;28;20048;-63
2022/04/16 12:31:29;;;;;;;6.05;3.30;;;22.70;91.60;;;;;;5069060;28;20060;-64
2022/04/16 12:33:58;;;;;;;3.65;2.63;;;22.80;90.40;;;;;;5067777;28;20051;-64
2022/04/16 12:36:25;;;;;;;4.30;2.75;;;22.90;90.70;;;;;;5069163;28;20063;-64
2022/04/16 12:38:54;;;;;;;8.10;3.85;;;23.00;90.20;;;;;;5067944;28;20044;-63
2022/04/16 12:41:22;;;;;;;12.87;5.47;;;23.00;89.40;;;;;;5067433;28;20041;-64
2022/04/16 12:43:50;;;;;;;5.35;3.03;;;23.10;89.20;;;;;;5064431;28;20048;-63
2022/04/16 12:46:18;;;;;;;13.50;4.38;;;23.10;85.70;;;;;;5068995;28;20538;-63
2022/04/16 12:48:46;;;;;;;8.77;4.13;;;23.10;87.20;;;;;;5068889;28;20048;-63
2022/04/16 12:51:13;;;;;;;11.57;4.90;;;23.00;86.30;;;;;;5069352;28;20063;-63
2022/04/16 12:53:41;;;;;;;8.93;3.55;;;23.20;86.90;;;;;;5053743;28;20539;-64
2022/04/16 12:56:08;;;;;;;8.27;3.30;;;23.30;85.60;;;;;;5052515;28;20056;-64
2022/04/16 12:58:36;;;;;;;5.93;2.60;;;23.50;86.20;;;;;;5064358;28;20075;-64
2022/04/16 13:01:04;;;;;;;7.82;3.10;;;23.70;84.30;;;;;;5072690;28;20393;-64
2022/04/16 13:03:31;;;;;;;4.45;2.50;;;23.90;81.70;;;;;;5072589;28;20471;-63
2022/04/16 13:05:59;;;;;;;7.20;3.10;;;24.10;80.20;;;;;;5054796;28;20055;-63
2022/04/16 13:08:29;;;;;;;4.30;2.70;;;24.20;80.00;;;;;;5070045;28;20059;-66
2022/04/16 13:10:57;;;;;;;9.07;2.80;;;24.40;81.30;;;;;;5071397;28;20040;-63